sensor_id;sensor_type;location;lat;lon;timestamp;P1;durP1;ratioP1;P2;durP2;ratioP2
67995;SDS011;54772;53.544;49.324;2023-12-28T00:00:34;7.40;;;3.65;;
67995;SDS011;54772;53.544;49.324;2023-12-28T00:03:21;6.82;;;4.05;;
67995;SDS011;54772;53.544;49.324;2023-12-28T00:06:08;6.97;;;4.22;;
67995;SDS011;54772;53.544;49.324;2023-12-28T00:08:55;5.87;;;3.80;;
67995;SDS011;54772;53.544;49.324;2023-12-28T00:11:42;4.90;;;3.20;;
67995;SDS011;54772;53.544;49.324;2023-12-28T00:14:28;5.40;;;3.30;;
67995;SDS011;54772;53.544;49.324;2023-12-28T00:17:15;4.75;;;3.08;;
67995;SDS011;54772;53.544;49.324;2023-12-28T00:22:48;5.40;;;3.58;;
67995;SDS011;54772;53.544;49.324;2023-12-28T00:25:35;5.70;;;3.53;;
67995;SDS011;54772;53.544;49.324;2023-12-28T00:28:23;4.57;;;3.25;;
67995;SDS011;54772;53.544;49.324;2023-12-28T00:31:10;4.95;;;3.40;;
67995;SDS011;54772;53.544;49.324;2023-12-28T00:33:56;5.50;;;3.40;;
67995;SDS011;54772;53.544;49.324;2023-12-28T00:36:43;5.43;;;3.58;;
67995;SDS011;54772;53.544;49.324;2023-12-28T00:39:30;5.37;;;3.60;;
67995;SDS011;54772;53.544;49.324;2023-12-28T00:42:17;6.12;;;3.65;;
67995;SDS011;54772;53.544;49.324;2023-12-28T00:45:01;6.28;;;3.45;;
67995;SDS011;54772;53.544;49.324;2023-12-28T00:47:49;5.57;;;3.37;;
67995;SDS011;54772;53.544;49.324;2023-12-28T00:50:37;5.47;;;3.60;;
67995;SDS011;54772;53.544;49.324;2023-12-28T00:56:11;6.07;;;4.27;;
67995;SDS011;54772;53.544;49.324;2023-12-28T00:58:58;5.50;;;4.00;;
67995;SDS011;54772;53.544;49.324;2023-12-28T01:01:46;6.05;;;4.20;;
67995;SDS011;54772;53.544;49.324;2023-12-28T01:07:19;6.15;;;4.10;;
67995;SDS011;54772;53.544;49.324;2023-12-28T01:10:06;6.07;;;4.20;;
67995;SDS011;54772;53.544;49.324;2023-12-28T01:12:53;6.03;;;4.10;;
67995;SDS011;54772;53.544;49.324;2023-12-28T01:15:39;5.78;;;4.18;;
67995;SDS011;54772;53.544;49.324;2023-12-28T01:18:26;7.55;;;4.37;;
67995;SDS011;54772;53.544;49.324;2023-12-28T01:21:13;5.62;;;4.03;;
67995;SDS011;54772;53.544;49.324;2023-12-28T01:23:59;5.57;;;4.05;;
67995;SDS011;54772;53.544;49.324;2023-12-28T01:26:44;5.80;;;4.07;;
67995;SDS011;54772;53.544;49.324;2023-12-28T01:29:32;5.45;;;3.75;;
67995;SDS011;54772;53.544;49.324;2023-12-28T01:32:19;5.25;;;3.47;;
67995;SDS011;54772;53.544;49.324;2023-12-28T01:37:53;6.87;;;4.40;;
67995;SDS011;54772;53.544;49.324;2023-12-28T01:40:43;5.50;;;3.85;;
67995;SDS011;54772;53.544;49.324;2023-12-28T01:43:31;6.20;;;4.10;;
67995;SDS011;54772;53.544;49.324;2023-12-28T01:46:18;5.95;;;4.40;;
67995;SDS011;54772;53.544;49.324;2023-12-28T01:49:06;5.22;;;3.65;;
67995;SDS011;54772;53.544;49.324;2023-12-28T01:51:52;6.43;;;4.05;;
67995;SDS011;54772;53.544;49.324;2023-12-28T01:54:39;5.45;;;3.78;;
67995;SDS011;54772;53.544;49.324;2023-12-28T01:57:26;6.05;;;4.00;;
67995;SDS011;54772;53.544;49.324;2023-12-28T02:00:13;4.72;;;3.17;;
67995;SDS011;54772;53.544;49.324;2023-12-28T02:03:01;4.65;;;3.42;;
67995;SDS011;54772;53.544;49.324;2023-12-28T02:05:48;5.28;;;3.42;;
67995;SDS011;54772;53.544;49.324;2023-12-28T02:08:35;4.70;;;3.40;;
67995;SDS011;54772;53.544;49.324;2023-12-28T02:11:22;4.87;;;3.65;;
67995;SDS011;54772;53.544;49.324;2023-12-28T02:14:09;7.03;;;3.60;;
67995;SDS011;54772;53.544;49.324;2023-12-28T02:19:50;5.57;;;3.55;;
67995;SDS011;54772;53.544;49.324;2023-12-28T02:22:39;6.32;;;3.90;;
67995;SDS011;54772;53.544;49.324;2023-12-28T02:25:27;4.82;;;3.33;;
67995;SDS011;54772;53.544;49.324;2023-12-28T02:28:13;4.57;;;3.28;;
67995;SDS011;54772;53.544;49.324;2023-12-28T02:31:00;4.80;;;3.53;;
67995;SDS011;54772;53.544;49.324;2023-12-28T02:33:50;5.37;;;3.60;;
67995;SDS011;54772;53.544;49.324;2023-12-28T02:36:44;5.25;;;3.37;;
67995;SDS011;54772;53.544;49.324;2023-12-28T02:39:31;5.18;;;3.33;;
67995;SDS011;54772;53.544;49.324;2023-12-28T02:42:19;7.05;;;3.72;;
67995;SDS011;54772;53.544;49.324;2023-12-28T02:45:06;6.45;;;3.67;;
67995;SDS011;54772;53.544;49.324;2023-12-28T02:47:53;4.65;;;3.20;;
67995;SDS011;54772;53.544;49.324;2023-12-28T02:50:39;5.60;;;3.65;;
67995;SDS011;54772;53.544;49.324;2023-12-28T02:53:26;7.18;;;3.80;;
67995;SDS011;54772;53.544;49.324;2023-12-28T02:56:13;5.93;;;4.03;;
67995;SDS011;54772;53.544;49.324;2023-12-28T02:59:00;6.18;;;3.70;;
67995;SDS011;54772;53.544;49.324;2023-12-28T03:01:46;6.80;;;4.35;;
67995;SDS011;54772;53.544;49.324;2023-12-28T03:04:33;6.40;;;3.92;;
67995;SDS011;54772;53.544;49.324;2023-12-28T03:07:19;7.65;;;4.35;;
67995;SDS011;54772;53.544;49.324;2023-12-28T03:10:07;5.82;;;3.92;;
67995;SDS011;54772;53.544;49.324;2023-12-28T03:12:54;7.60;;;4.18;;
67995;SDS011;54772;53.544;49.324;2023-12-28T03:15:41;6.22;;;3.75;;
67995;SDS011;54772;53.544;49.324;2023-12-28T03:18:28;6.70;;;3.72;;
67995;SDS011;54772;53.544;49.324;2023-12-28T03:21:11;6.15;;;3.58;;
67995;SDS011;54772;53.544;49.324;2023-12-28T03:23:58;5.80;;;3.90;;
67995;SDS011;54772;53.544;49.324;2023-12-28T03:26:45;6.00;;;3.97;;
67995;SDS011;54772;53.544;49.324;2023-12-28T03:29:33;6.18;;;3.80;;
67995;SDS011;54772;53.544;49.324;2023-12-28T03:32:20;6.32;;;3.42;;
67995;SDS011;54772;53.544;49.324;2023-12-28T03:35:08;6.37;;;4.30;;
67995;SDS011;54772;53.544;49.324;2023-12-28T03:37:54;6.10;;;3.67;;
67995;SDS011;54772;53.544;49.324;2023-12-28T03:40:41;5.10;;;3.70;;
67995;SDS011;54772;53.544;49.324;2023-12-28T03:43:32;5.62;;;3.60;;
67995;SDS011;54772;53.544;49.324;2023-12-28T03:46:18;5.55;;;3.55;;
67995;SDS011;54772;53.544;49.324;2023-12-28T03:49:05;4.93;;;3.40;;
67995;SDS011;54772;53.544;49.324;2023-12-28T03:51:52;5.07;;;3.60;;
67995;SDS011;54772;53.544;49.324;2023-12-28T03:54:39;4.93;;;3.70;;
67995;SDS011;54772;53.544;49.324;2023-12-28T03:57:26;6.47;;;4.20;;
67995;SDS011;54772;53.544;49.324;2023-12-28T04:00:13;5.78;;;4.07;;
67995;SDS011;54772;53.544;49.324;2023-12-28T04:03:01;6.25;;;3.80;;
67995;SDS011;54772;53.544;49.324;2023-12-28T04:05:50;7.55;;;4.72;;
67995;SDS011;54772;53.544;49.324;2023-12-28T04:08:36;6.65;;;4.05;;
67995;SDS011;54772;53.544;49.324;2023-12-28T04:11:23;6.37;;;4.65;;
67995;SDS011;54772;53.544;49.324;2023-12-28T04:14:10;7.10;;;4.53;;
67995;SDS011;54772;53.544;49.324;2023-12-28T04:16:57;8.27;;;4.70;;
67995;SDS011;54772;53.544;49.324;2023-12-28T04:19:41;7.57;;;4.28;;
67995;SDS011;54772;53.544;49.324;2023-12-28T04:22:27;6.53;;;4.55;;
67995;SDS011;54772;53.544;49.324;2023-12-28T04:25:14;7.72;;;4.95;;
67995;SDS011;54772;53.544;49.324;2023-12-28T04:28:58;6.20;;;4.32;;
67995;SDS011;54772;53.544;49.324;2023-12-28T04:31:46;8.13;;;5.00;;
67995;SDS011;54772;53.544;49.324;2023-12-28T04:34:32;6.22;;;4.45;;
67995;SDS011;54772;53.544;49.324;2023-12-28T04:37:19;5.65;;;3.53;;
67995;SDS011;54772;53.544;49.324;2023-12-28T04:40:06;4.95;;;3.20;;
67995;SDS011;54772;53.544;49.324;2023-12-28T04:42:53;3.95;;;2.28;;
67995;SDS011;54772;53.544;49.324;2023-12-28T04:45:40;5.70;;;3.65;;
67995;SDS011;54772;53.544;49.324;2023-12-28T04:48:26;6.03;;;3.55;;
67995;SDS011;54772;53.544;49.324;2023-12-28T04:51:13;7.55;;;3.85;;
67995;SDS011;54772;53.544;49.324;2023-12-28T04:54:00;6.57;;;3.90;;
67995;SDS011;54772;53.544;49.324;2023-12-28T04:56:47;9.23;;;5.07;;
67995;SDS011;54772;53.544;49.324;2023-12-28T04:59:40;8.85;;;5.72;;
67995;SDS011;54772;53.544;49.324;2023-12-28T05:02:27;8.73;;;6.03;;
67995;SDS011;54772;53.544;49.324;2023-12-28T05:05:14;7.60;;;4.80;;
67995;SDS011;54772;53.544;49.324;2023-12-28T05:08:01;9.57;;;6.37;;
67995;SDS011;54772;53.544;49.324;2023-12-28T05:10:47;8.40;;;5.57;;
67995;SDS011;54772;53.544;49.324;2023-12-28T05:13:34;8.40;;;5.80;;
67995;SDS011;54772;53.544;49.324;2023-12-28T05:16:21;10.38;;;6.05;;
67995;SDS011;54772;53.544;49.324;2023-12-28T05:19:08;9.75;;;6.78;;
67995;SDS011;54772;53.544;49.324;2023-12-28T05:21:55;10.80;;;6.60;;
67995;SDS011;54772;53.544;49.324;2023-12-28T05:24:42;10.40;;;6.60;;
67995;SDS011;54772;53.544;49.324;2023-12-28T05:27:28;12.85;;;6.70;;
67995;SDS011;54772;53.544;49.324;2023-12-28T05:30:15;10.30;;;6.03;;
67995;SDS011;54772;53.544;49.324;2023-12-28T05:33:02;11.02;;;6.80;;
67995;SDS011;54772;53.544;49.324;2023-12-28T05:35:49;10.07;;;5.72;;
67995;SDS011;54772;53.544;49.324;2023-12-28T05:38:36;10.38;;;6.85;;
67995;SDS011;54772;53.544;49.324;2023-12-28T05:41:22;10.95;;;6.82;;
67995;SDS011;54772;53.544;49.324;2023-12-28T05:44:09;10.45;;;6.62;;
67995;SDS011;54772;53.544;49.324;2023-12-28T05:46:56;12.65;;;7.10;;
67995;SDS011;54772;53.544;49.324;2023-12-28T05:49:39;6.87;;;4.40;;
67995;SDS011;54772;53.544;49.324;2023-12-28T05:52:27;7.68;;;4.45;;
67995;SDS011;54772;53.544;49.324;2023-12-28T05:55:14;8.25;;;5.35;;
67995;SDS011;54772;53.544;49.324;2023-12-28T05:58:01;8.30;;;5.65;;
67995;SDS011;54772;53.544;49.324;2023-12-28T06:00:48;7.53;;;5.53;;
67995;SDS011;54772;53.544;49.324;2023-12-28T06:03:34;8.05;;;4.03;;
67995;SDS011;54772;53.544;49.324;2023-12-28T06:06:21;8.63;;;5.28;;
67995;SDS011;54772;53.544;49.324;2023-12-28T06:09:09;8.93;;;5.97;;
67995;SDS011;54772;53.544;49.324;2023-12-28T06:11:53;12.20;;;6.95;;
67995;SDS011;54772;53.544;49.324;2023-12-28T06:14:40;11.35;;;7.03;;
67995;SDS011;54772;53.544;49.324;2023-12-28T06:17:27;11.85;;;6.85;;
67995;SDS011;54772;53.544;49.324;2023-12-28T06:20:13;13.13;;;7.25;;
67995;SDS011;54772;53.544;49.324;2023-12-28T06:23:00;11.12;;;6.60;;
67995;SDS011;54772;53.544;49.324;2023-12-28T06:25:47;11.32;;;6.25;;
67995;SDS011;54772;53.544;49.324;2023-12-28T06:28:33;11.23;;;6.78;;
67995;SDS011;54772;53.544;49.324;2023-12-28T06:34:07;11.48;;;6.85;;
67995;SDS011;54772;53.544;49.324;2023-12-28T06:36:54;13.18;;;8.05;;
67995;SDS011;54772;53.544;49.324;2023-12-28T06:39:41;14.45;;;6.35;;
67995;SDS011;54772;53.544;49.324;2023-12-28T06:42:28;10.55;;;6.62;;
67995;SDS011;54772;53.544;49.324;2023-12-28T06:45:15;9.57;;;5.85;;
67995;SDS011;54772;53.544;49.324;2023-12-28T06:50:51;12.35;;;6.53;;
67995;SDS011;54772;53.544;49.324;2023-12-28T06:56:24;8.90;;;5.18;;
67995;SDS011;54772;53.544;49.324;2023-12-28T06:59:11;8.80;;;4.75;;
67995;SDS011;54772;53.544;49.324;2023-12-28T07:01:57;7.65;;;5.10;;
67995;SDS011;54772;53.544;49.324;2023-12-28T07:04:44;6.75;;;3.95;;
67995;SDS011;54772;53.544;49.324;2023-12-28T07:07:30;8.38;;;5.45;;
67995;SDS011;54772;53.544;49.324;2023-12-28T07:10:17;6.97;;;4.70;;
67995;SDS011;54772;53.544;49.324;2023-12-28T07:13:02;8.73;;;5.50;;
67995;SDS011;54772;53.544;49.324;2023-12-28T07:15:47;9.85;;;4.72;;
67995;SDS011;54772;53.544;49.324;2023-12-28T07:18:35;6.85;;;4.05;;
67995;SDS011;54772;53.544;49.324;2023-12-28T07:21:21;5.70;;;3.87;;
67995;SDS011;54772;53.544;49.324;2023-12-28T07:24:25;7.37;;;5.75;;
67995;SDS011;54772;53.544;49.324;2023-12-28T07:27:12;6.68;;;5.05;;
67995;SDS011;54772;53.544;49.324;2023-12-28T07:29:59;10.80;;;5.40;;
67995;SDS011;54772;53.544;49.324;2023-12-28T07:32:46;7.43;;;4.37;;
67995;SDS011;54772;53.544;49.324;2023-12-28T07:35:33;7.50;;;5.10;;
67995;SDS011;54772;53.544;49.324;2023-12-28T07:38:20;5.95;;;4.30;;
67995;SDS011;54772;53.544;49.324;2023-12-28T07:41:06;6.78;;;4.47;;
67995;SDS011;54772;53.544;49.324;2023-12-28T07:43:53;7.62;;;5.00;;
67995;SDS011;54772;53.544;49.324;2023-12-28T07:46:40;7.60;;;5.20;;
67995;SDS011;54772;53.544;49.324;2023-12-28T07:49:28;6.50;;;4.00;;
67995;SDS011;54772;53.544;49.324;2023-12-28T07:52:15;7.07;;;4.82;;
67995;SDS011;54772;53.544;49.324;2023-12-28T07:55:03;7.45;;;5.22;;
67995;SDS011;54772;53.544;49.324;2023-12-28T08:00:36;5.25;;;4.07;;
67995;SDS011;54772;53.544;49.324;2023-12-28T08:03:23;7.43;;;4.60;;
67995;SDS011;54772;53.544;49.324;2023-12-28T08:09:00;7.97;;;4.30;;
67995;SDS011;54772;53.544;49.324;2023-12-28T08:11:47;6.22;;;3.90;;
67995;SDS011;54772;53.544;49.324;2023-12-28T08:14:34;6.65;;;4.10;;
67995;SDS011;54772;53.544;49.324;2023-12-28T08:17:20;6.93;;;3.72;;
67995;SDS011;54772;53.544;49.324;2023-12-28T08:20:07;6.10;;;3.85;;
67995;SDS011;54772;53.544;49.324;2023-12-28T08:22:53;6.03;;;3.55;;
67995;SDS011;54772;53.544;49.324;2023-12-28T08:25:40;6.40;;;4.62;;
67995;SDS011;54772;53.544;49.324;2023-12-28T08:28:27;5.05;;;3.55;;
67995;SDS011;54772;53.544;49.324;2023-12-28T08:31:14;6.68;;;4.72;;
67995;SDS011;54772;53.544;49.324;2023-12-28T08:34:01;6.78;;;5.00;;
67995;SDS011;54772;53.544;49.324;2023-12-28T08:36:48;7.90;;;4.60;;
67995;SDS011;54772;53.544;49.324;2023-12-28T08:39:34;6.47;;;4.28;;
67995;SDS011;54772;53.544;49.324;2023-12-28T08:42:22;6.25;;;3.50;;
67995;SDS011;54772;53.544;49.324;2023-12-28T08:45:09;6.70;;;4.53;;
67995;SDS011;54772;53.544;49.324;2023-12-28T08:47:56;7.28;;;4.93;;
67995;SDS011;54772;53.544;49.324;2023-12-28T08:50:43;6.30;;;4.75;;
67995;SDS011;54772;53.544;49.324;2023-12-28T08:53:30;9.20;;;4.50;;
67995;SDS011;54772;53.544;49.324;2023-12-28T08:56:18;8.65;;;4.60;;
67995;SDS011;54772;53.544;49.324;2023-12-28T08:59:01;6.55;;;4.40;;
67995;SDS011;54772;53.544;49.324;2023-12-28T09:01:49;9.00;;;5.28;;
67995;SDS011;54772;53.544;49.324;2023-12-28T09:04:38;7.32;;;4.30;;
67995;SDS011;54772;53.544;49.324;2023-12-28T09:07:18;6.45;;;4.25;;
67995;SDS011;54772;53.544;49.324;2023-12-28T09:10:05;8.13;;;4.97;;
67995;SDS011;54772;53.544;49.324;2023-12-28T09:12:52;7.55;;;5.00;;
67995;SDS011;54772;53.544;49.324;2023-12-28T09:15:38;6.75;;;4.50;;
67995;SDS011;54772;53.544;49.324;2023-12-28T09:18:25;6.47;;;4.70;;
67995;SDS011;54772;53.544;49.324;2023-12-28T09:21:12;6.40;;;4.30;;
67995;SDS011;54772;53.544;49.324;2023-12-28T09:23:59;7.25;;;4.30;;
67995;SDS011;54772;53.544;49.324;2023-12-28T09:26:45;6.37;;;4.30;;
67995;SDS011;54772;53.544;49.324;2023-12-28T09:29:32;6.43;;;4.65;;
67995;SDS011;54772;53.544;49.324;2023-12-28T09:32:20;7.07;;;4.20;;
67995;SDS011;54772;53.544;49.324;2023-12-28T09:35:07;6.40;;;4.22;;
67995;SDS011;54772;53.544;49.324;2023-12-28T09:37:54;4.85;;;3.62;;
67995;SDS011;54772;53.544;49.324;2023-12-28T09:40:41;6.90;;;4.40;;
67995;SDS011;54772;53.544;49.324;2023-12-28T09:43:30;6.03;;;3.80;;
67995;SDS011;54772;53.544;49.324;2023-12-28T09:46:42;6.12;;;4.82;;
67995;SDS011;54772;53.544;49.324;2023-12-28T09:49:32;8.02;;;4.37;;
67995;SDS011;54772;53.544;49.324;2023-12-28T09:52:18;6.32;;;4.40;;
67995;SDS011;54772;53.544;49.324;2023-12-28T09:55:05;5.57;;;3.42;;
67995;SDS011;54772;53.544;49.324;2023-12-28T09:57:53;6.15;;;4.43;;
67995;SDS011;54772;53.544;49.324;2023-12-28T10:00:43;5.45;;;4.18;;
67995;SDS011;54772;53.544;49.324;2023-12-28T10:03:31;6.47;;;4.32;;
67995;SDS011;54772;53.544;49.324;2023-12-28T10:06:17;7.50;;;4.35;;
67995;SDS011;54772;53.544;49.324;2023-12-28T10:09:05;5.85;;;4.15;;
67995;SDS011;54772;53.544;49.324;2023-12-28T10:11:53;6.72;;;4.35;;
67995;SDS011;54772;53.544;49.324;2023-12-28T10:14:41;5.62;;;4.00;;
67995;SDS011;54772;53.544;49.324;2023-12-28T10:20:14;6.47;;;4.40;;
67995;SDS011;54772;53.544;49.324;2023-12-28T10:23:03;6.82;;;4.62;;
67995;SDS011;54772;53.544;49.324;2023-12-28T10:25:51;5.12;;;3.70;;
67995;SDS011;54772;53.544;49.324;2023-12-28T10:28:41;6.87;;;4.50;;
67995;SDS011;54772;53.544;49.324;2023-12-28T10:31:27;7.43;;;4.05;;
67995;SDS011;54772;53.544;49.324;2023-12-28T10:34:14;6.45;;;4.25;;
67995;SDS011;54772;53.544;49.324;2023-12-28T10:37:01;7.30;;;4.20;;
67995;SDS011;54772;53.544;49.324;2023-12-28T10:39:49;5.43;;;3.80;;
67995;SDS011;54772;53.544;49.324;2023-12-28T10:42:57;5.62;;;4.20;;
67995;SDS011;54772;53.544;49.324;2023-12-28T10:48:36;6.37;;;4.25;;
67995;SDS011;54772;53.544;49.324;2023-12-28T10:51:25;6.12;;;4.40;;
67995;SDS011;54772;53.544;49.324;2023-12-28T10:57:29;7.28;;;4.80;;
67995;SDS011;54772;53.544;49.324;2023-12-28T11:00:24;6.62;;;4.90;;
67995;SDS011;54772;53.544;49.324;2023-12-28T11:03:12;6.85;;;4.43;;
67995;SDS011;54772;53.544;49.324;2023-12-28T11:06:01;6.07;;;4.18;;
67995;SDS011;54772;53.544;49.324;2023-12-28T11:08:52;7.65;;;4.28;;
67995;SDS011;54772;53.544;49.324;2023-12-28T11:11:39;6.00;;;4.53;;
67995;SDS011;54772;53.544;49.324;2023-12-28T11:14:27;7.55;;;4.10;;
67995;SDS011;54772;53.544;49.324;2023-12-28T11:17:14;5.85;;;3.62;;
67995;SDS011;54772;53.544;49.324;2023-12-28T11:20:02;8.80;;;4.53;;
67995;SDS011;54772;53.544;49.324;2023-12-28T11:22:52;5.82;;;3.67;;
67995;SDS011;54772;53.544;49.324;2023-12-28T11:25:38;6.25;;;4.10;;
67995;SDS011;54772;53.544;49.324;2023-12-28T11:28:25;6.03;;;4.57;;
67995;SDS011;54772;53.544;49.324;2023-12-28T11:31:15;6.72;;;4.30;;
67995;SDS011;54772;53.544;49.324;2023-12-28T11:34:03;6.65;;;4.57;;
67995;SDS011;54772;53.544;49.324;2023-12-28T11:36:53;5.60;;;4.15;;
67995;SDS011;54772;53.544;49.324;2023-12-28T11:39:41;6.20;;;4.05;;
67995;SDS011;54772;53.544;49.324;2023-12-28T11:42:29;1.33;;;0.82;;
67995;SDS011;54772;53.544;49.324;2023-12-28T11:45:16;6.10;;;3.05;;
67995;SDS011;54772;53.544;49.324;2023-12-28T11:48:03;3.65;;;2.78;;
67995;SDS011;54772;53.544;49.324;2023-12-28T11:50:52;5.55;;;3.80;;
67995;SDS011;54772;53.544;49.324;2023-12-28T11:53:43;5.32;;;2.78;;
67995;SDS011;54772;53.544;49.324;2023-12-28T11:56:32;6.20;;;3.62;;
67995;SDS011;54772;53.544;49.324;2023-12-28T11:59:19;3.85;;;2.47;;
67995;SDS011;54772;53.544;49.324;2023-12-28T12:02:06;6.37;;;3.80;;
67995;SDS011;54772;53.544;49.324;2023-12-28T12:04:54;4.97;;;3.17;;
67995;SDS011;54772;53.544;49.324;2023-12-28T12:07:41;4.80;;;2.87;;
67995;SDS011;54772;53.544;49.324;2023-12-28T12:10:28;5.93;;;3.90;;
67995;SDS011;54772;53.544;49.324;2023-12-28T12:13:14;3.12;;;1.80;;
67995;SDS011;54772;53.544;49.324;2023-12-28T12:16:01;5.40;;;3.00;;
67995;SDS011;54772;53.544;49.324;2023-12-28T12:18:50;6.78;;;4.43;;
67995;SDS011;54772;53.544;49.324;2023-12-28T12:21:37;5.32;;;3.42;;
67995;SDS011;54772;53.544;49.324;2023-12-28T12:24:24;5.70;;;3.45;;
67995;SDS011;54772;53.544;49.324;2023-12-28T12:27:11;6.12;;;4.12;;
67995;SDS011;54772;53.544;49.324;2023-12-28T12:29:57;5.30;;;3.50;;
67995;SDS011;54772;53.544;49.324;2023-12-28T12:32:43;4.62;;;2.80;;
67995;SDS011;54772;53.544;49.324;2023-12-28T12:38:16;3.75;;;2.65;;
67995;SDS011;54772;53.544;49.324;2023-12-28T12:41:03;4.03;;;2.72;;
67995;SDS011;54772;53.544;49.324;2023-12-28T12:43:50;5.37;;;3.58;;
67995;SDS011;54772;53.544;49.324;2023-12-28T12:46:37;5.15;;;3.70;;
67995;SDS011;54772;53.544;49.324;2023-12-28T12:49:23;6.03;;;3.62;;
67995;SDS011;54772;53.544;49.324;2023-12-28T12:52:11;5.32;;;3.33;;
67995;SDS011;54772;53.544;49.324;2023-12-28T12:54:58;6.75;;;3.83;;
67995;SDS011;54772;53.544;49.324;2023-12-28T12:57:45;6.35;;;4.03;;
67995;SDS011;54772;53.544;49.324;2023-12-28T13:00:25;6.35;;;4.10;;
67995;SDS011;54772;53.544;49.324;2023-12-28T13:03:13;6.70;;;3.50;;
67995;SDS011;54772;53.544;49.324;2023-12-28T13:05:59;6.60;;;3.85;;
67995;SDS011;54772;53.544;49.324;2023-12-28T13:08:48;3.25;;;2.00;;
67995;SDS011;54772;53.544;49.324;2023-12-28T13:11:35;6.05;;;3.75;;
67995;SDS011;54772;53.544;49.324;2023-12-28T13:14:22;5.12;;;3.37;;
67995;SDS011;54772;53.544;49.324;2023-12-28T13:17:09;5.45;;;3.10;;
67995;SDS011;54772;53.544;49.324;2023-12-28T13:19:57;5.47;;;3.65;;
67995;SDS011;54772;53.544;49.324;2023-12-28T13:22:43;5.65;;;3.33;;
67995;SDS011;54772;53.544;49.324;2023-12-28T13:25:30;4.82;;;3.35;;
67995;SDS011;54772;53.544;49.324;2023-12-28T13:28:16;5.00;;;3.12;;
67995;SDS011;54772;53.544;49.324;2023-12-28T13:31:01;4.70;;;3.20;;
67995;SDS011;54772;53.544;49.324;2023-12-28T13:33:49;5.37;;;3.42;;
67995;SDS011;54772;53.544;49.324;2023-12-28T13:36:36;4.43;;;3.42;;
67995;SDS011;54772;53.544;49.324;2023-12-28T13:39:23;4.30;;;2.90;;
67995;SDS011;54772;53.544;49.324;2023-12-28T13:42:09;4.07;;;2.40;;
67995;SDS011;54772;53.544;49.324;2023-12-28T13:47:42;4.15;;;2.78;;
67995;SDS011;54772;53.544;49.324;2023-12-28T13:50:29;6.32;;;3.15;;
67995;SDS011;54772;53.544;49.324;2023-12-28T13:53:17;6.05;;;3.55;;
67995;SDS011;54772;53.544;49.324;2023-12-28T13:56:03;5.62;;;2.78;;
67995;SDS011;54772;53.544;49.324;2023-12-28T13:59:36;5.75;;;3.28;;
67995;SDS011;54772;53.544;49.324;2023-12-28T14:02:20;4.20;;;2.58;;
67995;SDS011;54772;53.544;49.324;2023-12-28T14:05:07;5.50;;;3.37;;
67995;SDS011;54772;53.544;49.324;2023-12-28T14:07:53;5.12;;;2.75;;
67995;SDS011;54772;53.544;49.324;2023-12-28T14:10:40;6.78;;;3.20;;
67995;SDS011;54772;53.544;49.324;2023-12-28T14:13:26;5.10;;;3.15;;
67995;SDS011;54772;53.544;49.324;2023-12-28T14:16:14;1.48;;;0.93;;
67995;SDS011;54772;53.544;49.324;2023-12-28T14:19:00;2.37;;;1.95;;
67995;SDS011;54772;53.544;49.324;2023-12-28T14:21:47;2.65;;;1.62;;
67995;SDS011;54772;53.544;49.324;2023-12-28T14:24:34;2.25;;;1.65;;
67995;SDS011;54772;53.544;49.324;2023-12-28T14:27:21;3.50;;;2.15;;
67995;SDS011;54772;53.544;49.324;2023-12-28T14:30:08;2.87;;;1.80;;
67995;SDS011;54772;53.544;49.324;2023-12-28T14:32:56;3.42;;;1.98;;
67995;SDS011;54772;53.544;49.324;2023-12-28T14:35:43;3.95;;;2.20;;
67995;SDS011;54772;53.544;49.324;2023-12-28T14:38:30;3.80;;;2.62;;
67995;SDS011;54772;53.544;49.324;2023-12-28T14:41:16;4.65;;;3.22;;
67995;SDS011;54772;53.544;49.324;2023-12-28T14:44:03;5.15;;;3.10;;
67995;SDS011;54772;53.544;49.324;2023-12-28T14:46:50;4.30;;;2.62;;
67995;SDS011;54772;53.544;49.324;2023-12-28T14:49:37;5.80;;;3.20;;
67995;SDS011;54772;53.544;49.324;2023-12-28T14:52:23;5.07;;;3.08;;
67995;SDS011;54772;53.544;49.324;2023-12-28T14:55:11;5.68;;;2.87;;
67995;SDS011;54772;53.544;49.324;2023-12-28T14:57:57;5.70;;;3.35;;
67995;SDS011;54772;53.544;49.324;2023-12-28T15:00:45;4.85;;;2.85;;
67995;SDS011;54772;53.544;49.324;2023-12-28T15:03:31;3.95;;;2.83;;
67995;SDS011;54772;53.544;49.324;2023-12-28T15:06:18;4.57;;;2.83;;
67995;SDS011;54772;53.544;49.324;2023-12-28T15:09:04;3.50;;;2.17;;
67995;SDS011;54772;53.544;49.324;2023-12-28T15:11:51;5.82;;;3.03;;
67995;SDS011;54772;53.544;49.324;2023-12-28T15:17:25;3.40;;;1.87;;
67995;SDS011;54772;53.544;49.324;2023-12-28T15:20:12;5.68;;;2.85;;
67995;SDS011;54772;53.544;49.324;2023-12-28T15:23:00;4.53;;;2.47;;
67995;SDS011;54772;53.544;49.324;2023-12-28T15:28:33;4.28;;;2.58;;
67995;SDS011;54772;53.544;49.324;2023-12-28T15:31:20;5.22;;;2.95;;
67995;SDS011;54772;53.544;49.324;2023-12-28T15:34:06;5.72;;;3.20;;
67995;SDS011;54772;53.544;49.324;2023-12-28T15:36:53;5.00;;;2.80;;
67995;SDS011;54772;53.544;49.324;2023-12-28T15:39:41;5.85;;;3.30;;
67995;SDS011;54772;53.544;49.324;2023-12-28T15:42:27;5.97;;;3.78;;
67995;SDS011;54772;53.544;49.324;2023-12-28T15:45:14;4.72;;;2.72;;
67995;SDS011;54772;53.544;49.324;2023-12-28T15:48:01;5.10;;;3.15;;
67995;SDS011;54772;53.544;49.324;2023-12-28T15:50:48;3.85;;;2.40;;
67995;SDS011;54772;53.544;49.324;2023-12-28T15:53:34;4.00;;;2.28;;
67995;SDS011;54772;53.544;49.324;2023-12-28T15:56:22;3.70;;;2.37;;
67995;SDS011;54772;53.544;49.324;2023-12-28T15:59:09;4.07;;;2.42;;
67995;SDS011;54772;53.544;49.324;2023-12-28T16:01:53;5.00;;;3.08;;
67995;SDS011;54772;53.544;49.324;2023-12-28T16:04:40;3.62;;;2.20;;
67995;SDS011;54772;53.544;49.324;2023-12-28T16:07:27;4.40;;;2.35;;
67995;SDS011;54772;53.544;49.324;2023-12-28T16:10:13;4.78;;;2.53;;
67995;SDS011;54772;53.544;49.324;2023-12-28T16:13:00;4.90;;;2.42;;
67995;SDS011;54772;53.544;49.324;2023-12-28T16:15:47;5.70;;;2.95;;
67995;SDS011;54772;53.544;49.324;2023-12-28T16:18:35;7.55;;;3.03;;
67995;SDS011;54772;53.544;49.324;2023-12-28T16:21:22;6.40;;;3.37;;
67995;SDS011;54772;53.544;49.324;2023-12-28T16:24:09;4.07;;;2.58;;
67995;SDS011;54772;53.544;49.324;2023-12-28T16:26:56;5.10;;;2.60;;
67995;SDS011;54772;53.544;49.324;2023-12-28T16:29:42;4.72;;;2.65;;
67995;SDS011;54772;53.544;49.324;2023-12-28T16:32:30;4.78;;;2.53;;
67995;SDS011;54772;53.544;49.324;2023-12-28T16:35:16;5.35;;;2.85;;
67995;SDS011;54772;53.544;49.324;2023-12-28T16:38:03;3.97;;;2.58;;
67995;SDS011;54772;53.544;49.324;2023-12-28T16:40:50;4.80;;;2.90;;
67995;SDS011;54772;53.544;49.324;2023-12-28T16:43:37;5.68;;;2.70;;
67995;SDS011;54772;53.544;49.324;2023-12-28T16:46:27;4.22;;;2.47;;
67995;SDS011;54772;53.544;49.324;2023-12-28T16:49:13;6.22;;;2.72;;
67995;SDS011;54772;53.544;49.324;2023-12-28T16:52:01;4.30;;;2.33;;
67995;SDS011;54772;53.544;49.324;2023-12-28T16:57:34;4.10;;;2.47;;
67995;SDS011;54772;53.544;49.324;2023-12-28T17:03:08;3.85;;;2.45;;
67995;SDS011;54772;53.544;49.324;2023-12-28T17:05:55;5.12;;;1.85;;
67995;SDS011;54772;53.544;49.324;2023-12-28T17:08:42;2.97;;;1.55;;
67995;SDS011;54772;53.544;49.324;2023-12-28T17:11:30;5.03;;;2.53;;
67995;SDS011;54772;53.544;49.324;2023-12-28T17:14:17;4.30;;;2.47;;
67995;SDS011;54772;53.544;49.324;2023-12-28T17:17:05;3.12;;;2.20;;
67995;SDS011;54772;53.544;49.324;2023-12-28T17:19:52;2.62;;;1.75;;
67995;SDS011;54772;53.544;49.324;2023-12-28T17:28:20;3.80;;;2.33;;
67995;SDS011;54772;53.544;49.324;2023-12-28T17:31:09;3.78;;;2.37;;